sensor_id;sensor_type;location;lat;lon;timestamp;pressure;altitude;pressure_sealevel;temperature
62930;BMP280;49036;42.782;23.108;2023-07-13T00:00:46;94298.84;;;19.85
62930;BMP280;49036;42.782;23.108;2023-07-13T00:03:12;94298.16;;;19.67
62930;BMP280;49036;42.782;23.108;2023-07-13T00:05:39;94290.88;;;19.42
62930;BMP280;49036;42.782;23.108;2023-07-13T00:08:05;94288.34;;;19.30
62930;BMP280;49036;42.782;23.108;2023-07-13T00:10:30;94291.22;;;19.14
62930;BMP280;49036;42.782;23.108;2023-07-13T00:12:56;94294.72;;;18.97
62930;BMP280;49036;42.782;23.108;2023-07-13T00:15:24;94294.09;;;18.81
62930;BMP280;49036;42.782;23.108;2023-07-13T00:17:52;94290.78;;;18.69
62930;BMP280;49036;42.782;23.108;2023-07-13T00:20:20;94289.63;;;18.58
62930;BMP280;49036;42.782;23.108;2023-07-13T00:22:50;94280.53;;;18.42
62930;BMP280;49036;42.782;23.108;2023-07-13T00:25:17;94278.44;;;18.27
62930;BMP280;49036;42.782;23.108;2023-07-13T00:27:43;94289.38;;;18.03
62930;BMP280;49036;42.782;23.108;2023-07-13T00:30:09;94286.56;;;17.87
62930;BMP280;49036;42.782;23.108;2023-07-13T00:32:35;94279.25;;;17.80
62930;BMP280;49036;42.782;23.108;2023-07-13T00:35:01;94280.75;;;17.67
62930;BMP280;49036;42.782;23.108;2023-07-13T00:37:28;94279.09;;;17.62
62930;BMP280;49036;42.782;23.108;2023-07-13T00:39:54;94279.13;;;17.47
62930;BMP280;49036;42.782;23.108;2023-07-13T00:42:20;94280.69;;;17.20
62930;BMP280;49036;42.782;23.108;2023-07-13T00:46:33;94278.03;;;17.09
62930;BMP280;49036;42.782;23.108;2023-07-13T00:49:02;94278.66;;;17.07
62930;BMP280;49036;42.782;23.108;2023-07-13T00:54:05;94272.94;;;17.05
62930;BMP280;49036;42.782;23.108;2023-07-13T00:57:36;94278.63;;;16.91
62930;BMP280;49036;42.782;23.108;2023-07-13T01:00:04;94279.88;;;16.88
62930;BMP280;49036;42.782;23.108;2023-07-13T01:02:32;94288.09;;;16.71
62930;BMP280;49036;42.782;23.108;2023-07-13T01:04:58;94282.75;;;16.61
62930;BMP280;49036;42.782;23.108;2023-07-13T01:08:08;94274.75;;;16.55
62930;BMP280;49036;42.782;23.108;2023-07-13T01:10:34;94275.88;;;16.64
62930;BMP280;49036;42.782;23.108;2023-07-13T01:14:23;94288.13;;;16.57
62930;BMP280;49036;42.782;23.108;2023-07-13T01:16:49;94278.38;;;16.44
62930;BMP280;49036;42.782;23.108;2023-07-13T01:19:43;94287.53;;;16.31
62930;BMP280;49036;42.782;23.108;2023-07-13T01:22:14;94281.94;;;16.31
62930;BMP280;49036;42.782;23.108;2023-07-13T01:24:43;94268.34;;;16.25
62930;BMP280;49036;42.782;23.108;2023-07-13T01:27:12;94263.03;;;16.31
62930;BMP280;49036;42.782;23.108;2023-07-13T01:29:39;94267.38;;;16.21
62930;BMP280;49036;42.782;23.108;2023-07-13T01:32:12;94270.63;;;16.29
62930;BMP280;49036;42.782;23.108;2023-07-13T01:34:38;94265.63;;;16.27
62930;BMP280;49036;42.782;23.108;2023-07-13T01:37:08;94262.09;;;16.27
62930;BMP280;49036;42.782;23.108;2023-07-13T01:39:34;94260.56;;;16.24
62930;BMP280;49036;42.782;23.108;2023-07-13T01:42:01;94263.75;;;16.18
62930;BMP280;49036;42.782;23.108;2023-07-13T01:44:26;94265.84;;;16.18
62930;BMP280;49036;42.782;23.108;2023-07-13T01:46:52;94263.53;;;16.28
62930;BMP280;49036;42.782;23.108;2023-07-13T01:49:17;94266.84;;;16.38
62930;BMP280;49036;42.782;23.108;2023-07-13T01:51:43;94267.59;;;16.39
62930;BMP280;49036;42.782;23.108;2023-07-13T01:54:08;94269.38;;;16.32
62930;BMP280;49036;42.782;23.108;2023-07-13T01:56:34;94266.03;;;16.22
62930;BMP280;49036;42.782;23.108;2023-07-13T01:58:59;94270.50;;;16.13
62930;BMP280;49036;42.782;23.108;2023-07-13T02:01:25;94271.03;;;16.10
62930;BMP280;49036;42.782;23.108;2023-07-13T02:03:50;94269.16;;;16.14
62930;BMP280;49036;42.782;23.108;2023-07-13T02:06:16;94270.72;;;16.17
62930;BMP280;49036;42.782;23.108;2023-07-13T02:08:42;94274.34;;;16.20
62930;BMP280;49036;42.782;23.108;2023-07-13T02:11:08;94270.50;;;16.13
62930;BMP280;49036;42.782;23.108;2023-07-13T02:13:33;94278.09;;;16.11
62930;BMP280;49036;42.782;23.108;2023-07-13T02:15:59;94274.53;;;15.96
62930;BMP280;49036;42.782;23.108;2023-07-13T02:18:25;94262.91;;;15.88
62930;BMP280;49036;42.782;23.108;2023-07-13T02:20:51;94266.56;;;15.91
62930;BMP280;49036;42.782;23.108;2023-07-13T02:23:16;94262.41;;;15.92
62930;BMP280;49036;42.782;23.108;2023-07-13T02:27:49;94262.09;;;16.13
62930;BMP280;49036;42.782;23.108;2023-07-13T02:30:15;94265.53;;;16.12
62930;BMP280;49036;42.782;23.108;2023-07-13T02:32:40;94262.94;;;16.16
62930;BMP280;49036;42.782;23.108;2023-07-13T02:35:06;94275.38;;;16.13
62930;BMP280;49036;42.782;23.108;2023-07-13T02:37:31;94264.28;;;16.01
62930;BMP280;49036;42.782;23.108;2023-07-13T02:39:57;94265.41;;;15.96
62930;BMP280;49036;42.782;23.108;2023-07-13T02:42:22;94277.03;;;15.90
62930;BMP280;49036;42.782;23.108;2023-07-13T02:44:48;94277.84;;;15.93
62930;BMP280;49036;42.782;23.108;2023-07-13T02:47:15;94273.06;;;15.95
62930;BMP280;49036;42.782;23.108;2023-07-13T02:49:40;94277.94;;;15.95
62930;BMP280;49036;42.782;23.108;2023-07-13T02:52:06;94275.38;;;16.13
62930;BMP280;49036;42.782;23.108;2023-07-13T02:54:31;94270.63;;;16.29
62930;BMP280;49036;42.782;23.108;2023-07-13T02:56:57;94274.81;;;16.71
62930;BMP280;49036;42.782;23.108;2023-07-13T02:59:23;94278.28;;;17.28
62930;BMP280;49036;42.782;23.108;2023-07-13T03:01:48;94274.88;;;17.61
62930;BMP280;49036;42.782;23.108;2023-07-13T03:04:14;94277.50;;;17.73
62930;BMP280;49036;42.782;23.108;2023-07-13T03:06:39;94273.16;;;17.54
62930;BMP280;49036;42.782;23.108;2023-07-13T03:09:05;94274.38;;;17.35
62930;BMP280;49036;42.782;23.108;2023-07-13T03:12:18;94280.97;;;17.26
62930;BMP280;49036;42.782;23.108;2023-07-13T03:14:43;94279.91;;;17.33
62930;BMP280;49036;42.782;23.108;2023-07-13T03:17:09;94282.56;;;17.45
62930;BMP280;49036;42.782;23.108;2023-07-13T03:19:34;94288.47;;;17.51
62930;BMP280;49036;42.782;23.108;2023-07-13T03:22:00;94292.16;;;17.56
62930;BMP280;49036;42.782;23.108;2023-07-13T03:24:25;94287.22;;;17.70
62930;BMP280;49036;42.782;23.108;2023-07-13T03:26:51;94287.38;;;17.74
62930;BMP280;49036;42.782;23.108;2023-07-13T03:29:17;94280.31;;;17.89
62930;BMP280;49036;42.782;23.108;2023-07-13T03:31:42;94290.56;;;17.98
62930;BMP280;49036;42.782;23.108;2023-07-13T03:34:08;94282.66;;;18.10
62930;BMP280;49036;42.782;23.108;2023-07-13T03:36:33;94288.44;;;18.30
62930;BMP280;49036;42.782;23.108;2023-07-13T03:39:00;94283.44;;;18.44
62930;BMP280;49036;42.782;23.108;2023-07-13T03:41:26;94282.47;;;18.55
62930;BMP280;49036;42.782;23.108;2023-07-13T03:43:52;94284.44;;;18.68
62930;BMP280;49036;42.782;23.108;2023-07-13T03:46:17;94286.38;;;18.82
62930;BMP280;49036;42.782;23.108;2023-07-13T03:48:45;94288.41;;;18.97
62930;BMP280;49036;42.782;23.108;2023-07-13T03:51:12;94291.88;;;19.13
62930;BMP280;49036;42.782;23.108;2023-07-13T03:53:41;94288.41;;;19.32
62930;BMP280;49036;42.782;23.108;2023-07-13T03:58:01;94288.19;;;19.64
62930;BMP280;49036;42.782;23.108;2023-07-13T04:00:45;94288.94;;;19.84
62930;BMP280;49036;42.782;23.108;2023-07-13T04:03:10;94282.38;;;19.97
62930;BMP280;49036;42.782;23.108;2023-07-13T04:05:36;94288.38;;;20.07
62930;BMP280;49036;42.782;23.108;2023-07-13T04:08:01;94285.16;;;20.37
62930;BMP280;49036;42.782;23.108;2023-07-13T04:10:27;94291.06;;;20.45
62930;BMP280;49036;42.782;23.108;2023-07-13T04:12:52;94289.53;;;20.83
62930;BMP280;49036;42.782;23.108;2023-07-13T04:15:18;94295.91;;;21.06
62930;BMP280;49036;42.782;23.108;2023-07-13T04:17:43;94301.91;;;21.40
62930;BMP280;49036;42.782;23.108;2023-07-13T04:20:09;94301.94;;;21.89
62930;BMP280;49036;42.782;23.108;2023-07-13T04:23:49;94307.03;;;22.19
62930;BMP280;49036;42.782;23.108;2023-07-13T04:26:15;94305.78;;;22.26
62930;BMP280;49036;42.782;23.108;2023-07-13T04:28:40;94300.00;;;22.48
62930;BMP280;49036;42.782;23.108;2023-07-13T04:31:06;94307.00;;;22.72
62930;BMP280;49036;42.782;23.108;2023-07-13T04:33:31;94303.38;;;22.98
62930;BMP280;49036;42.782;23.108;2023-07-13T04:35:57;94317.41;;;23.21
62930;BMP280;49036;42.782;23.108;2023-07-13T04:38:24;94315.09;;;23.46
62930;BMP280;49036;42.782;23.108;2023-07-13T04:42:21;94321.75;;;25.12
62930;BMP280;49036;42.782;23.108;2023-07-13T04:44:51;94321.56;;;26.05
62930;BMP280;49036;42.782;23.108;2023-07-13T04:47:20;94319.84;;;26.44
62930;BMP280;49036;42.782;23.108;2023-07-13T04:49:46;94324.69;;;27.11
62930;BMP280;49036;42.782;23.108;2023-07-13T04:52:12;94316.78;;;27.06
62930;BMP280;49036;42.782;23.108;2023-07-13T04:54:38;94327.13;;;26.63
62930;BMP280;49036;42.782;23.108;2023-07-13T04:57:04;94329.03;;;26.38
62930;BMP280;49036;42.782;23.108;2023-07-13T04:59:34;94313.09;;;26.11
62930;BMP280;49036;42.782;23.108;2023-07-13T05:02:00;94318.25;;;25.66
62930;BMP280;49036;42.782;23.108;2023-07-13T05:04:26;94321.63;;;25.04
62930;BMP280;49036;42.782;23.108;2023-07-13T05:06:52;94319.97;;;24.89
62930;BMP280;49036;42.782;23.108;2023-07-13T05:09:17;94323.75;;;25.04
62930;BMP280;49036;42.782;23.108;2023-07-13T05:11:43;94321.31;;;24.86
62930;BMP280;49036;42.782;23.108;2023-07-13T05:14:09;94324.69;;;24.74
62930;BMP280;49036;42.782;23.108;2023-07-13T05:16:35;94324.06;;;25.24
62930;BMP280;49036;42.782;23.108;2023-07-13T05:19:01;94326.00;;;26.18
62930;BMP280;49036;42.782;23.108;2023-07-13T05:22:04;94326.91;;;27.21
62930;BMP280;49036;42.782;23.108;2023-07-13T05:24:30;94322.97;;;28.01
62930;BMP280;49036;42.782;23.108;2023-07-13T05:26:55;94321.59;;;28.10
62930;BMP280;49036;42.782;23.108;2023-07-13T05:29:21;94323.09;;;28.84
62930;BMP280;49036;42.782;23.108;2023-07-13T05:31:48;94325.22;;;29.18
62930;BMP280;49036;42.782;23.108;2023-07-13T05:34:14;94330.66;;;30.03
62930;BMP280;49036;42.782;23.108;2023-07-13T05:36:40;94332.47;;;30.53
62930;BMP280;49036;42.782;23.108;2023-07-13T05:39:05;94325.03;;;30.86
62930;BMP280;49036;42.782;23.108;2023-07-13T05:41:31;94314.97;;;30.91
62930;BMP280;49036;42.782;23.108;2023-07-13T05:43:56;94315.06;;;30.79
62930;BMP280;49036;42.782;23.108;2023-07-13T05:46:22;94317.81;;;30.91
62930;BMP280;49036;42.782;23.108;2023-07-13T05:48:47;94320.72;;;30.89
62930;BMP280;49036;42.782;23.108;2023-07-13T05:51:13;94325.13;;;30.78
62930;BMP280;49036;42.782;23.108;2023-07-13T05:53:39;94326.00;;;30.58
62930;BMP280;49036;42.782;23.108;2023-07-13T05:56:04;94332.91;;;30.90
62930;BMP280;49036;42.782;23.108;2023-07-13T05:58:30;94335.63;;;31.06
62930;BMP280;49036;42.782;23.108;2023-07-13T06:01:07;94334.28;;;30.95
62930;BMP280;49036;42.782;23.108;2023-07-13T06:03:34;94338.59;;;30.96
62930;BMP280;49036;42.782;23.108;2023-07-13T06:06:00;94340.25;;;30.67
62930;BMP280;49036;42.782;23.108;2023-07-13T06:08:26;94347.16;;;29.90
62930;BMP280;49036;42.782;23.108;2023-07-13T06:10:52;94344.28;;;29.90
62930;BMP280;49036;42.782;23.108;2023-07-13T06:13:17;94350.16;;;29.48
62930;BMP280;49036;42.782;23.108;2023-07-13T06:15:50;94350.91;;;29.34
62930;BMP280;49036;42.782;23.108;2023-07-13T06:18:16;94346.69;;;28.82
62930;BMP280;49036;42.782;23.108;2023-07-13T06:20:41;94346.69;;;29.13
62930;BMP280;49036;42.782;23.108;2023-07-13T06:23:07;94349.47;;;29.47
62930;BMP280;49036;42.782;23.108;2023-07-13T06:25:32;94334.25;;;29.97
62930;BMP280;49036;42.782;23.108;2023-07-13T06:27:58;94335.16;;;29.51
62930;BMP280;49036;42.782;23.108;2023-07-13T06:30:23;94329.34;;;29.78
62930;BMP280;49036;42.782;23.108;2023-07-13T06:32:49;94332.03;;;30.10
62930;BMP280;49036;42.782;23.108;2023-07-13T06:35:15;94335.31;;;30.59
62930;BMP280;49036;42.782;23.108;2023-07-13T06:37:40;94336.66;;;30.68
62930;BMP280;49036;42.782;23.108;2023-07-13T06:40:06;94334.22;;;31.03
62930;BMP280;49036;42.782;23.108;2023-07-13T06:42:32;94341.78;;;31.35
62930;BMP280;49036;42.782;23.108;2023-07-13T06:44:58;94335.22;;;30.69
62930;BMP280;49036;42.782;23.108;2023-07-13T06:47:23;94333.72;;;30.78
62930;BMP280;49036;42.782;23.108;2023-07-13T06:49:49;94330.81;;;30.80
62930;BMP280;49036;42.782;23.108;2023-07-13T06:52:14;94335.81;;;30.84
62930;BMP280;49036;42.782;23.108;2023-07-13T06:54:39;94337.25;;;30.85
62930;BMP280;49036;42.782;23.108;2023-07-13T06:57:05;94332.03;;;31.10
62930;BMP280;49036;42.782;23.108;2023-07-13T06:59:30;94332.59;;;31.22
62930;BMP280;49036;42.782;23.108;2023-07-13T07:01:56;94327.50;;;31.27
62930;BMP280;49036;42.782;23.108;2023-07-13T07:04:22;94333.25;;;31.27
62930;BMP280;49036;42.782;23.108;2023-07-13T07:06:47;94336.09;;;31.29
62930;BMP280;49036;42.782;23.108;2023-07-13T07:09:13;94329.66;;;31.26
62930;BMP280;49036;42.782;23.108;2023-07-13T07:11:39;94332.53;;;31.26
62930;BMP280;49036;42.782;23.108;2023-07-13T07:14:04;94318.25;;;31.20
62930;BMP280;49036;42.782;23.108;2023-07-13T07:16:30;94326.78;;;31.30
62930;BMP280;49036;42.782;23.108;2023-07-13T07:18:55;94329.94;;;31.00
62930;BMP280;49036;42.782;23.108;2023-07-13T07:21:21;94323.16;;;30.54
62930;BMP280;49036;42.782;23.108;2023-07-13T07:23:48;94322.06;;;30.01
62930;BMP280;49036;42.782;23.108;2023-07-13T07:26:13;94320.59;;;30.14
62930;BMP280;49036;42.782;23.108;2023-07-13T07:28:39;94314.28;;;29.81
62930;BMP280;49036;42.782;23.108;2023-07-13T07:31:04;94316.63;;;29.32
62930;BMP280;49036;42.782;23.108;2023-07-13T07:33:30;94306.69;;;28.93
62930;BMP280;49036;42.782;23.108;2023-07-13T07:35:55;94306.69;;;28.86
62930;BMP280;49036;42.782;23.108;2023-07-13T07:38:21;94310.97;;;28.71
62930;BMP280;49036;42.782;23.108;2023-07-13T07:40:46;94307.38;;;28.89
62930;BMP280;49036;42.782;23.108;2023-07-13T07:43:12;94299.53;;;28.96
62930;BMP280;49036;42.782;23.108;2023-07-13T07:45:39;94299.53;;;29.02
62930;BMP280;49036;42.782;23.108;2023-07-13T07:48:06;94295.22;;;29.19
62930;BMP280;49036;42.782;23.108;2023-07-13T07:50:32;94305.16;;;29.40
62930;BMP280;49036;42.782;23.108;2023-07-13T07:52:58;94294.44;;;29.35
62930;BMP280;49036;42.782;23.108;2023-07-13T07:55:24;94290.91;;;29.08
62930;BMP280;49036;42.782;23.108;2023-07-13T07:57:53;94288.69;;;29.45
62930;BMP280;49036;42.782;23.108;2023-07-13T08:00:19;94290.00;;;29.74
62930;BMP280;49036;42.782;23.108;2023-07-13T08:02:45;94280.56;;;30.06
62930;BMP280;49036;42.782;23.108;2023-07-13T08:05:11;94283.75;;;30.57
62930;BMP280;49036;42.782;23.108;2023-07-13T08:07:38;94279.53;;;31.19
62930;BMP280;49036;42.782;23.108;2023-07-13T08:10:04;94286.09;;;31.12
62930;BMP280;49036;42.782;23.108;2023-07-13T08:12:34;94290.69;;;31.47
62930;BMP280;49036;42.782;23.108;2023-07-13T08:14:59;94287.69;;;31.60
62930;BMP280;49036;42.782;23.108;2023-07-13T08:17:26;94287.44;;;31.80
62930;BMP280;49036;42.782;23.108;2023-07-13T08:19:52;94283.53;;;31.44
62930;BMP280;49036;42.782;23.108;2023-07-13T08:22:17;94273.50;;;31.45
62930;BMP280;49036;42.782;23.108;2023-07-13T08:24:43;94269.09;;;31.55
62930;BMP280;49036;42.782;23.108;2023-07-13T08:27:09;94273.03;;;31.25
62930;BMP280;49036;42.782;23.108;2023-07-13T08:29:37;94272.16;;;31.38
62930;BMP280;49036;42.782;23.108;2023-07-13T08:32:04;94258.53;;;31.92
62930;BMP280;49036;42.782;23.108;2023-07-13T08:34:31;94271.25;;;32.05
62930;BMP280;49036;42.782;23.108;2023-07-13T08:36:56;94277.16;;;31.95
62930;BMP280;49036;42.782;23.108;2023-07-13T08:39:22;94268.47;;;31.46
62930;BMP280;49036;42.782;23.108;2023-07-13T08:41:52;94280.81;;;31.32
62930;BMP280;49036;42.782;23.108;2023-07-13T08:44:30;94276.78;;;31.11
62930;BMP280;49036;42.782;23.108;2023-07-13T08:47:01;94284.59;;;31.17
62930;BMP280;49036;42.782;23.108;2023-07-13T08:49:28;94287.50;;;31.74
62930;BMP280;49036;42.782;23.108;2023-07-13T08:54:32;94299.94;;;32.09
62930;BMP280;49036;42.782;23.108;2023-07-13T08:57:03;94302.06;;;31.60
62930;BMP280;49036;42.782;23.108;2023-07-13T08:59:35;94309.75;;;31.71
62930;BMP280;49036;42.782;23.108;2023-07-13T09:02:25;94319.34;;;31.54
62930;BMP280;49036;42.782;23.108;2023-07-13T09:04:56;94319.28;;;31.58
62930;BMP280;49036;42.782;23.108;2023-07-13T09:17:55;94317.50;;;32.36
62930;BMP280;49036;42.782;23.108;2023-07-13T09:20:34;94313.84;;;32.39
62930;BMP280;49036;42.782;23.108;2023-07-13T09:23:01;94317.00;;;32.66
62930;BMP280;49036;42.782;23.108;2023-07-13T09:25:31;94319.25;;;32.60
62930;BMP280;49036;42.782;23.108;2023-07-13T09:28:02;94316.66;;;32.41
62930;BMP280;49036;42.782;23.108;2023-07-13T09:33:22;94311.13;;;33.13
62930;BMP280;49036;42.782;23.108;2023-07-13T09:35:48;94305.75;;;32.93
62930;BMP280;49036;42.782;23.108;2023-07-13T09:38:19;94296.63;;;34.20
62930;BMP280;49036;42.782;23.108;2023-07-13T09:41:04;94299.81;;;34.39
62930;BMP280;49036;42.782;23.108;2023-07-13T09:43:34;94290.63;;;34.30
62930;BMP280;49036;42.782;23.108;2023-07-13T09:46:00;94279.25;;;34.82
62930;BMP280;49036;42.782;23.108;2023-07-13T09:48:34;94278.63;;;34.77
62930;BMP280;49036;42.782;23.108;2023-07-13T09:51:10;94277.78;;;35.59
62930;BMP280;49036;42.782;23.108;2023-07-13T09:53:38;94275.53;;;35.12
62930;BMP280;49036;42.782;23.108;2023-07-13T09:56:03;94270.84;;;34.71
62930;BMP280;49036;42.782;23.108;2023-07-13T09:58:30;94265.03;;;34.45
62930;BMP280;49036;42.782;23.108;2023-07-13T10:01:01;94271.34;;;35.56
62930;BMP280;49036;42.782;23.108;2023-07-13T10:03:33;94269.25;;;35.78
62930;BMP280;49036;42.782;23.108;2023-07-13T10:06:18;94271.28;;;35.58
62930;BMP280;49036;42.782;23.108;2023-07-13T10:08:45;94271.25;;;36.29
62930;BMP280;49036;42.782;23.108;2023-07-13T10:14:10;94260.41;;;38.22
62930;BMP280;49036;42.782;23.108;2023-07-13T10:16:30;94265.56;;;39.36
62930;BMP280;49036;42.782;23.108;2023-07-13T10:19:06;94260.44;;;40.41
62930;BMP280;49036;42.782;23.108;2023-07-13T10:21:43;94254.94;;;40.20
62930;BMP280;49036;42.782;23.108;2023-07-13T10:24:27;94252.38;;;39.08
62930;BMP280;49036;42.782;23.108;2023-07-13T10:27:10;94252.09;;;37.95
62930;BMP280;49036;42.782;23.108;2023-07-13T10:29:44;94253.28;;;36.88
62930;BMP280;49036;42.782;23.108;2023-07-13T10:32:12;94247.31;;;37.13
62930;BMP280;49036;42.782;23.108;2023-07-13T10:34:40;94238.81;;;38.36
62930;BMP280;49036;42.782;23.108;2023-07-13T10:37:16;94235.59;;;40.15
62930;BMP280;49036;42.782;23.108;2023-07-13T10:39:42;94228.91;;;41.15
62930;BMP280;49036;42.782;23.108;2023-07-13T10:42:11;94239.91;;;40.72
62930;BMP280;49036;42.782;23.108;2023-07-13T10:44:40;94230.47;;;40.30
62930;BMP280;49036;42.782;23.108;2023-07-13T10:47:08;94219.09;;;39.51
62930;BMP280;49036;42.782;23.108;2023-07-13T10:49:37;94223.59;;;38.35
62930;BMP280;49036;42.782;23.108;2023-07-13T10:52:04;94213.53;;;38.51
62930;BMP280;49036;42.782;23.108;2023-07-13T10:57:17;94206.72;;;39.67
62930;BMP280;49036;42.782;23.108;2023-07-13T10:59:49;94205.69;;;39.12
62930;BMP280;49036;42.782;23.108;2023-07-13T11:02:34;94199.59;;;39.18
62930;BMP280;49036;42.782;23.108;2023-07-13T11:05:20;94198.00;;;39.67
62930;BMP280;49036;42.782;23.108;2023-07-13T11:13:59;83165.88;;;42.34
62930;BMP280;49036;42.782;23.108;2023-07-13T11:16:53;68741.34;;;42.06
62930;BMP280;49036;42.782;23.108;2023-07-13T11:22:10;-15411.34;;;40.24
62930;BMP280;49036;42.782;23.108;2023-07-13T11:27:42;-15461.91;;;41.72
62930;BMP280;49036;42.782;23.108;2023-07-13T11:33:15;-15416.19;;;40.38
62930;BMP280;49036;42.782;23.108;2023-07-13T11:38:20;-15477.69;;;42.18
62930;BMP280;49036;42.782;23.108;2023-07-13T11:40:47;-15442.53;;;41.15
62930;BMP280;49036;42.782;23.108;2023-07-13T11:43:15;-15457.94;;;41.60
62930;BMP280;49036;42.782;23.108;2023-07-13T11:45:42;-15482.72;;;42.32
62930;BMP280;49036;42.782;23.108;2023-07-13T11:48:28;-15465.22;;;41.81
62930;BMP280;49036;42.782;23.108;2023-07-13T11:51:04;-15503.84;;;42.94
62930;BMP280;49036;42.782;23.108;2023-07-13T11:53:38;-15506.78;;;43.02
62930;BMP280;49036;42.782;23.108;2023-07-13T11:56:05;-15509.53;;;43.10
62930;BMP280;49036;42.782;23.108;2023-07-13T11:58:30;-15556.81;;;44.48
62930;BMP280;49036;42.782;23.108;2023-07-13T12:00:58;-15571.19;;;44.90
62930;BMP280;49036;42.782;23.108;2023-07-13T12:03:26;-15603.53;;;45.84
62930;BMP280;49036;42.782;23.108;2023-07-13T12:05:56;-15580.00;;;45.16
62930;BMP280;49036;42.782;23.108;2023-07-13T12:08:23;-15574.47;;;44.99
62930;BMP280;49036;42.782;23.108;2023-07-13T12:10:56;-15615.31;;;46.18
62930;BMP280;49036;42.782;23.108;2023-07-13T12:13:22;-15517.16;;;43.33
62930;BMP280;49036;42.782;23.108;2023-07-13T12:15:48;-15524.09;;;43.53
62930;BMP280;49036;42.782;23.108;2023-07-13T12:18:17;-15401.28;;;39.95
62930;BMP280;49036;42.782;23.108;2023-07-13T12:20:45;-15442.00;;;41.14
62930;BMP280;49036;42.782;23.108;2023-07-13T12:23:34;-15459.50;;;41.65
62930;BMP280;49036;42.782;23.108;2023-07-13T12:26:01;-15480.63;;;42.26
62930;BMP280;49036;42.782;23.108;2023-07-13T12:31:02;-15450.84;;;41.39
62930;BMP280;49036;42.782;23.108;2023-07-13T12:33:29;-15463.13;;;41.75
62930;BMP280;49036;42.782;23.108;2023-07-13T12:35:56;-15470.41;;;41.96
62930;BMP280;49036;42.782;23.108;2023-07-13T12:38:25;-15478.03;;;42.19
62930;BMP280;49036;42.782;23.108;2023-07-13T12:40:52;-15493.44;;;42.63
62930;BMP280;49036;42.782;23.108;2023-07-13T12:43:20;-15507.63;;;43.05
62930;BMP280;49036;42.782;23.108;2023-07-13T12:46:01;-15549.19;;;44.26
62930;BMP280;49036;42.782;23.108;2023-07-13T12:48:27;-15489.28;;;42.51
62930;BMP280;49036;42.782;23.108;2023-07-13T12:50:54;-15545.22;;;44.14
62930;BMP280;49036;42.782;23.108;2023-07-13T12:53:30;-15640.22;;;46.91
62930;BMP280;49036;42.782;23.108;2023-07-13T12:55:59;-15621.53;;;46.37
62930;BMP280;49036;42.782;23.108;2023-07-13T12:58:32;-15603.88;;;45.85
62930;BMP280;49036;42.782;23.108;2023-07-13T13:01:00;-15636.06;;;46.79
62930;BMP280;49036;42.782;23.108;2023-07-13T13:03:38;-15555.59;;;44.44
62930;BMP280;49036;42.782;23.108;2023-07-13T13:06:25;-15527.88;;;43.64
62930;BMP280;49036;42.782;23.108;2023-07-13T13:08:54;-15483.56;;;42.35
62930;BMP280;49036;42.782;23.108;2023-07-13T13:11:22;-15524.59;;;43.54
62930;BMP280;49036;42.782;23.108;2023-07-13T13:13:48;-15563.03;;;44.66
62930;BMP280;49036;42.782;23.108;2023-07-13T13:16:21;-15507.28;;;43.04
62930;BMP280;49036;42.782;23.108;2023-07-13T13:18:47;-15495.88;;;42.71
62930;BMP280;49036;42.782;23.108;2023-07-13T13:21:14;-15517.50;;;43.34
62930;BMP280;49036;42.782;23.108;2023-07-13T13:23:40;-15452.91;;;41.45
62930;BMP280;49036;42.782;23.108;2023-07-13T13:26:11;-15477.34;;;42.17
62930;BMP280;49036;42.782;23.108;2023-07-13T13:28:36;-15507.28;;;43.04
62930;BMP280;49036;42.782;23.108;2023-07-13T13:31:02;-15506.06;;;43.00
62930;BMP280;49036;42.782;23.108;2023-07-13T13:33:27;-15536.56;;;43.89
62930;BMP280;49036;42.782;23.108;2023-07-13T13:35:53;-15533.25;;;43.79
62930;BMP280;49036;42.782;23.108;2023-07-13T13:38:20;-15577.41;;;45.08
62930;BMP280;49036;42.782;23.108;2023-07-13T13:40:48;-15618.94;;;46.29
62930;BMP280;49036;42.782;23.108;2023-07-13T13:43:15;-15506.44;;;43.01
62930;BMP280;49036;42.782;23.108;2023-07-13T13:45:42;-15507.63;;;43.05
62930;BMP280;49036;42.782;23.108;2023-07-13T13:48:32;-15530.66;;;43.72
62930;BMP280;49036;42.782;23.108;2023-07-13T13:50:59;-15526.50;;;43.60
62930;BMP280;49036;42.782;23.108;2023-07-13T13:53:25;-15505.03;;;42.97
62930;BMP280;49036;42.782;23.108;2023-07-13T13:55:51;-15488.59;;;42.49
62930;BMP280;49036;42.782;23.108;2023-07-13T13:58:18;-15505.22;;;42.98
62930;BMP280;49036;42.782;23.108;2023-07-13T14:00:44;-15518.38;;;43.36
62930;BMP280;49036;42.782;23.108;2023-07-13T14:03:18;-15572.56;;;44.94
62930;BMP280;49036;42.782;23.108;2023-07-13T14:05:46;-15572.03;;;44.92
62930;BMP280;49036;42.782;23.108;2023-07-13T14:08:16;-15568.25;;;44.81
62930;BMP280;49036;42.782;23.108;2023-07-13T14:10:44;-15546.78;;;44.19
62930;BMP280;49036;42.782;23.108;2023-07-13T14:13:17;-15483.56;;;42.35
62930;BMP280;49036;42.782;23.108;2023-07-13T14:15:44;-15472.66;;;42.03
62930;BMP280;49036;42.782;23.108;2023-07-13T14:18:10;-15491.19;;;42.57
62930;BMP280;49036;42.782;23.108;2023-07-13T14:20:36;-15499.66;;;42.82
62930;BMP280;49036;42.782;23.108;2023-07-13T14:23:02;-15486.50;;;42.43
62930;BMP280;49036;42.782;23.108;2023-07-13T14:25:27;-15518.19;;;43.36
62930;BMP280;49036;42.782;23.108;2023-07-13T14:27:58;-15515.94;;;43.29
62930;BMP280;49036;42.782;23.108;2023-07-13T14:30:33;-15545.56;;;44.15
62930;BMP280;49036;42.782;23.108;2023-07-13T14:32:58;-15590.22;;;45.45
62930;BMP280;49036;42.782;23.108;2023-07-13T14:35:24;-15544.50;;;44.12
62930;BMP280;49036;42.782;23.108;2023-07-13T14:37:50;-15577.91;;;45.10
62930;BMP280;49036;42.782;23.108;2023-07-13T14:40:17;-15578.63;;;45.12
62930;BMP280;49036;42.782;23.108;2023-07-13T14:42:44;-15601.47;;;45.78
62930;BMP280;49036;42.782;23.108;2023-07-13T14:45:15;-15565.63;;;44.74
62930;BMP280;49036;42.782;23.108;2023-07-13T14:47:42;-15556.47;;;44.47
62930;BMP280;49036;42.782;23.108;2023-07-13T14:50:22;-15542.97;;;44.08
62930;BMP280;49036;42.782;23.108;2023-07-13T14:52:48;-15616.88;;;46.23
62930;BMP280;49036;42.782;23.108;2023-07-13T14:55:16;-15617.03;;;46.23